createdAt,value
2022-10-06T00:00:53.096Z,18.52
2022-10-06T00:03:36.197Z,14.95
2022-10-06T00:06:04.663Z,18.25
2022-10-06T00:08:36.325Z,18.63
2022-10-06T00:11:04.372Z,17.10
2022-10-06T00:13:32.568Z,18.25
2022-10-06T00:16:00.313Z,16.02
2022-10-06T00:18:28.922Z,16.17
2022-10-06T00:20:58.530Z,15.95
2022-10-06T00:23:26.630Z,19.05
2022-10-06T00:25:54.163Z,17.42
2022-10-06T00:28:21.912Z,14.15
2022-10-06T00:30:51.133Z,20.65
2022-10-06T00:33:18.567Z,16.58
2022-10-06T00:35:47.549Z,15.60
2022-10-06T00:38:16.698Z,22.92
2022-10-06T00:40:49.321Z,17.38
2022-10-06T00:43:47.318Z,15.95
2022-10-06T00:46:35.925Z,16.17
2022-10-06T00:49:12.060Z,13.88
2022-10-06T00:51:44.296Z,14.00
2022-10-06T00:54:12.733Z,15.55
2022-10-06T00:56:40.897Z,19.67
2022-10-06T00:59:11.058Z,15.32
2022-10-06T01:01:41.626Z,15.48
2022-10-06T01:04:13.781Z,18.15
2022-10-06T01:06:52.462Z,16.90
2022-10-06T01:09:21.211Z,15.00
2022-10-06T01:11:52.408Z,12.85
2022-10-06T01:14:21.629Z,14.63
2022-10-06T01:16:54.592Z,15.02
2022-10-06T01:20:00.299Z,13.40
2022-10-06T01:22:31.786Z,15.77
2022-10-06T01:24:59.923Z,13.32
2022-10-06T01:27:30.453Z,15.30
2022-10-06T01:29:58.925Z,14.88
2022-10-06T01:32:32.076Z,15.65
2022-10-06T01:35:00.033Z,15.20
2022-10-06T01:37:30.088Z,15.07
2022-10-06T01:39:57.286Z,15.63
2022-10-06T01:42:25.938Z,14.73
2022-10-06T01:44:53.322Z,15.88
2022-10-06T01:47:20.434Z,20.85
2022-10-06T01:49:47.629Z,16.13
2022-10-06T01:52:15.553Z,14.02
2022-10-06T01:54:42.835Z,13.30
2022-10-06T01:57:10.026Z,14.23
2022-10-06T01:59:38.762Z,14.25
2022-10-06T02:02:06.048Z,12.60
2022-10-06T02:04:33.223Z,15.73
2022-10-06T02:07:00.582Z,14.93
2022-10-06T02:09:28.543Z,16.50
2022-10-06T02:11:56.364Z,15.35
2022-10-06T02:14:23.935Z,15.80
2022-10-06T02:16:51.177Z,14.52
2022-10-06T02:19:18.555Z,15.45
2022-10-06T02:21:45.964Z,17.23
2022-10-06T02:24:13.111Z,16.55
2022-10-06T02:26:40.462Z,15.15
2022-10-06T02:29:10.973Z,14.95
2022-10-06T02:31:38.518Z,17.48
2022-10-06T02:34:05.930Z,16.02
2022-10-06T02:36:33.365Z,15.20
2022-10-06T02:39:00.566Z,16.40
2022-10-06T02:41:28.460Z,13.98
2022-10-06T02:43:55.986Z,13.88
2022-10-06T02:46:24.390Z,15.15
2022-10-06T02:48:53.893Z,15.90
2022-10-06T02:51:22.165Z,16.88
2022-10-06T02:53:50.345Z,13.25
2022-10-06T02:56:23.616Z,15.15
2022-10-06T02:58:52.502Z,18.10
2022-10-06T03:01:27.481Z,17.27
2022-10-06T03:03:58.173Z,18.70
2022-10-06T03:06:28.099Z,14.25
2022-10-06T03:09:10.150Z,16.75
2022-10-06T03:11:42.683Z,15.98
2022-10-06T03:14:16.606Z,18.88
2022-10-06T03:16:46.485Z,14.00
2022-10-06T03:19:19.880Z,14.68
2022-10-06T03:21:48.056Z,19.67
2022-10-06T03:24:15.799Z,22.17
2022-10-06T03:26:50.448Z,15.18
2022-10-06T03:29:19.286Z,15.38
2022-10-06T03:31:52.175Z,13.40
2022-10-06T03:34:19.406Z,13.82
2022-10-06T03:36:46.594Z,15.57
2022-10-06T03:39:15.861Z,13.68
2022-10-06T03:41:43.802Z,20.50
2022-10-06T03:44:11.066Z,15.35
2022-10-06T03:46:41.893Z,14.98
2022-10-06T03:49:09.379Z,13.40
2022-10-06T03:51:39.455Z,14.57
2022-10-06T03:54:12.983Z,19.52
2022-10-06T03:56:43.523Z,17.77
2022-10-06T03:59:17.353Z,13.82
2022-10-06T04:01:47.853Z,15.23
2022-10-06T04:04:20.382Z,15.13
2022-10-06T04:06:51.688Z,13.07
2022-10-06T04:09:21.197Z,14.45
2022-10-06T04:11:48.970Z,15.57
2022-10-06T04:14:16.828Z,14.07
2022-10-06T04:16:48.568Z,13.23
2022-10-06T04:19:20.848Z,13.30
2022-10-06T04:21:53.648Z,16.33
2022-10-06T04:24:23.890Z,17.92
2022-10-06T04:26:52.513Z,25.05
2022-10-06T04:29:21.138Z,20.02
2022-10-06T04:31:55.363Z,19.67
2022-10-06T04:34:34.839Z,17.40
2022-10-06T04:37:02.515Z,19.05
2022-10-06T04:39:29.679Z,22.13
2022-10-06T04:41:56.929Z,22.35
2022-10-06T04:44:30.380Z,19.90
2022-10-06T04:47:01.347Z,19.08
2022-10-06T04:49:28.619Z,17.75
2022-10-06T04:51:57.482Z,17.40
2022-10-06T04:54:27.974Z,18.20
2022-10-06T04:57:00.000Z,16.63
2022-10-06T04:59:47.575Z,18.08
2022-10-06T05:02:17.446Z,18.27
2022-10-06T05:04:46.758Z,14.20
2022-10-06T05:07:15.675Z,17.35
2022-10-06T05:09:43.229Z,15.38
2022-10-06T05:12:10.949Z,14.88
2022-10-06T05:14:38.812Z,15.38
2022-10-06T05:17:06.528Z,15.18
2022-10-06T05:19:35.452Z,16.08
2022-10-06T05:22:03.445Z,13.02
2022-10-06T05:24:32.379Z,20.13
2022-10-06T05:27:02.164Z,14.65
2022-10-06T05:29:30.274Z,18.52
2022-10-06T05:31:57.897Z,19.25
2022-10-06T05:34:27.507Z,19.25
2022-10-06T05:36:55.330Z,19.20
2022-10-06T05:39:22.598Z,17.30
2022-10-06T05:41:53.704Z,23.05
2022-10-06T05:44:21.752Z,20.10
2022-10-06T05:46:48.997Z,18.17
2022-10-06T05:49:16.479Z,17.67
2022-10-06T05:51:49.640Z,18.20
2022-10-06T05:54:24.862Z,20.58
2022-10-06T05:56:52.376Z,15.98
2022-10-06T05:59:19.633Z,16.88
2022-10-06T06:01:47.471Z,15.73
2022-10-06T06:04:32.428Z,14.93
2022-10-06T06:07:00.641Z,13.73
2022-10-06T06:09:28.953Z,20.00
2022-10-06T06:12:00.316Z,15.95
2022-10-06T06:15:09.082Z,20.52
2022-10-06T06:17:47.692Z,14.38
2022-10-06T06:20:14.962Z,17.25
2022-10-06T06:22:42.158Z,15.18
2022-10-06T06:25:10.613Z,15.45
2022-10-06T06:27:40.631Z,16.13
2022-10-06T06:30:08.664Z,13.77
2022-10-06T06:32:37.309Z,14.32
2022-10-06T06:35:06.826Z,12.43
2022-10-06T06:37:34.102Z,13.93
2022-10-06T06:40:02.449Z,16.30
2022-10-06T06:42:32.316Z,13.30
2022-10-06T06:45:18.780Z,13.32
2022-10-06T06:48:16.739Z,14.82
2022-10-06T06:50:45.885Z,13.82
2022-10-06T06:53:16.151Z,13.43
2022-10-06T06:55:51.186Z,11.70
2022-10-06T06:58:21.795Z,13.70
2022-10-06T07:00:50.150Z,12.57
2022-10-06T07:03:32.955Z,17.73
2022-10-06T07:06:10.605Z,11.90
2022-10-06T07:08:43.973Z,10.75
2022-10-06T07:11:19.721Z,10.60
2022-10-06T07:13:50.997Z,14.50
2022-10-06T07:16:38.183Z,11.75
2022-10-06T07:19:25.197Z,15.45
2022-10-06T07:22:18.900Z,12.50
2022-10-06T07:25:05.782Z,12.70
2022-10-06T07:27:43.488Z,15.15
2022-10-06T07:30:22.317Z,11.02
2022-10-06T07:32:55.041Z,12.15
2022-10-06T07:35:25.126Z,10.88
2022-10-06T07:37:58.113Z,13.75
2022-10-06T07:40:25.523Z,12.68
2022-10-06T07:42:52.660Z,12.32
2022-10-06T07:45:45.104Z,11.52
2022-10-06T07:48:30.181Z,11.43
2022-10-06T07:51:03.282Z,12.43
2022-10-06T07:53:36.151Z,12.57
2022-10-06T07:56:11.202Z,15.93
2022-10-06T07:58:44.149Z,13.50
2022-10-06T08:01:13.604Z,11.15
2022-10-06T08:03:43.169Z,15.82
2022-10-06T08:06:14.276Z,12.38
2022-10-06T08:08:43.661Z,10.93
2022-10-06T08:11:12.200Z,15.15
2022-10-06T08:13:42.406Z,14.07
2022-10-06T08:16:24.310Z,13.20
2022-10-06T08:18:56.207Z,12.52
2022-10-06T08:21:26.181Z,11.05
2022-10-06T08:23:54.694Z,11.57
2022-10-06T08:26:23.321Z,15.40
2022-10-06T08:28:55.427Z,14.05
2022-10-06T08:31:23.196Z,12.68
2022-10-06T08:33:56.155Z,12.05
2022-10-06T08:36:30.857Z,8.63
2022-10-06T08:39:00.169Z,12.65
2022-10-06T08:41:33.305Z,10.18
2022-10-06T08:44:05.580Z,10.02
2022-10-06T08:46:40.311Z,13.35
2022-10-06T08:49:19.071Z,11.02
2022-10-06T08:52:18.395Z,11.93
2022-10-06T08:54:53.531Z,10.55
2022-10-06T08:57:32.129Z,10.00
2022-10-06T08:59:59.891Z,10.82
2022-10-06T09:02:35.088Z,10.02
2022-10-06T09:05:06.008Z,9.38
2022-10-06T09:08:26.692Z,9.52
2022-10-06T09:11:14.567Z,10.40
2022-10-06T09:14:11.970Z,12.60
2022-10-06T09:16:43.931Z,13.00
2022-10-06T09:19:40.160Z,9.05
2022-10-06T09:22:21.850Z,10.52
2022-10-06T09:24:56.084Z,9.45
2022-10-06T09:27:23.999Z,8.35
2022-10-06T09:29:52.309Z,14.00
2022-10-06T09:32:22.365Z,9.73
2022-10-06T09:34:53.041Z,8.30
2022-10-06T09:37:20.500Z,7.72
2022-10-06T09:39:51.929Z,8.65
2022-10-06T09:42:22.206Z,8.18
2022-10-06T09:44:58.473Z,8.90
2022-10-06T09:47:45.420Z,8.57
2022-10-06T09:50:20.595Z,7.70
2022-10-06T09:53:05.857Z,10.63
2022-10-06T09:55:39.517Z,7.25
2022-10-06T09:58:21.765Z,7.72
2022-10-06T10:01:02.889Z,7.00
2022-10-06T10:04:15.585Z,9.77
2022-10-06T10:06:40.610Z,9.25
2022-10-06T10:09:28.147Z,6.97
2022-10-06T10:12:31.034Z,7.55
2022-10-06T10:15:05.363Z,7.25
2022-10-06T10:17:50.290Z,9.00
2022-10-06T10:20:29.937Z,8.45
2022-10-06T10:23:09.063Z,8.07
2022-10-06T10:26:00.573Z,6.88
2022-10-06T10:28:55.971Z,7.45
2022-10-06T10:31:41.762Z,7.53
2022-10-06T10:34:53.347Z,5.78
2022-10-06T10:37:25.740Z,7.97
2022-10-06T10:40:00.361Z,8.73
2022-10-06T10:42:48.069Z,5.30
2022-10-06T10:45:40.520Z,6.47
2022-10-06T10:48:17.449Z,7.78
2022-10-06T10:51:11.546Z,5.85
2022-10-06T10:54:02.589Z,5.47
2022-10-06T10:56:33.042Z,7.28
2022-10-06T10:59:15.538Z,6.78
2022-10-06T11:01:50.262Z,7.88
2022-10-06T11:04:17.676Z,8.75
2022-10-06T11:07:00.269Z,7.38
2022-10-06T11:09:59.731Z,7.20
2022-10-06T11:13:14.306Z,7.70
2022-10-06T11:16:09.390Z,5.40
2022-10-06T11:18:47.101Z,5.28
2022-10-06T11:21:50.113Z,5.50
2022-10-06T11:24:41.398Z,5.45
2022-10-06T11:27:26.581Z,5.80
2022-10-06T11:30:02.409Z,7.00
2022-10-06T11:32:44.804Z,5.87
2022-10-06T11:35:22.702Z,8.43
2022-10-06T11:37:59.827Z,6.93
2022-10-06T11:40:56.395Z,4.22
2022-10-06T11:43:35.624Z,6.90
2022-10-06T11:46:45.048Z,6.07
2022-10-06T11:49:31.763Z,4.20
2022-10-06T11:52:08.881Z,4.78
2022-10-06T11:54:51.460Z,7.03
2022-10-06T11:57:30.985Z,4.20
2022-10-06T12:00:05.067Z,6.47
2022-10-06T12:02:39.364Z,5.75
2022-10-06T12:05:28.601Z,9.65
2022-10-06T12:07:57.711Z,4.38
2022-10-06T12:10:27.775Z,5.30
2022-10-06T12:14:06.574Z,3.80
2022-10-06T12:19:26.123Z,4.13
2022-10-06T12:22:02.621Z,3.92
2022-10-06T12:24:43.422Z,6.38
2022-10-06T12:27:44.274Z,3.38
2022-10-06T12:30:19.766Z,4.65
2022-10-06T12:33:00.086Z,4.35
2022-10-06T12:35:30.267Z,6.43
2022-10-06T12:38:04.863Z,3.65
2022-10-06T12:40:48.689Z,7.18
2022-10-06T12:43:18.974Z,4.03
2022-10-06T12:45:57.278Z,6.03
2022-10-06T12:48:46.316Z,3.53
2022-10-06T12:51:13.550Z,4.07
2022-10-06T12:53:52.455Z,3.13
2022-10-06T12:56:29.708Z,4.05
2022-10-06T12:58:58.477Z,5.50
2022-10-06T13:01:28.045Z,3.03
2022-10-06T13:03:55.634Z,3.67
2022-10-06T13:06:25.277Z,3.63
2022-10-06T13:09:12.958Z,3.03
2022-10-06T13:11:40.625Z,4.03
2022-10-06T13:14:14.127Z,4.38
2022-10-06T13:16:45.624Z,3.78
2022-10-06T13:19:21.516Z,3.65
2022-10-06T13:21:48.965Z,4.35
2022-10-06T13:24:21.750Z,2.85
2022-10-06T13:26:48.978Z,4.25
2022-10-06T13:29:22.739Z,2.67
2022-10-06T13:31:55.638Z,4.03
2022-10-06T13:34:43.278Z,3.45
2022-10-06T13:37:15.468Z,2.38
2022-10-06T13:39:43.257Z,3.22
2022-10-06T13:42:17.669Z,2.50
2022-10-06T13:45:00.718Z,5.15
2022-10-06T13:47:32.292Z,2.83
2022-10-06T13:50:06.118Z,3.72
2022-10-06T13:52:38.795Z,3.08
2022-10-06T13:55:23.438Z,2.75
2022-10-06T13:57:55.101Z,4.43
2022-10-06T14:00:24.802Z,2.47
2022-10-06T14:03:10.021Z,3.47
2022-10-06T14:05:39.966Z,2.80
2022-10-06T14:08:10.227Z,4.07
2022-10-06T14:10:54.561Z,3.45
2022-10-06T14:13:24.832Z,2.78
2022-10-06T14:15:53.632Z,3.97
2022-10-06T14:18:37.057Z,4.20
2022-10-06T14:21:36.484Z,3.90
2022-10-06T14:24:16.681Z,3.35
2022-10-06T14:26:45.562Z,4.45
2022-10-06T14:29:14.339Z,3.58
2022-10-06T14:31:41.852Z,3.65
2022-10-06T14:34:14.635Z,2.80
2022-10-06T14:36:44.558Z,3.85
2022-10-06T14:39:14.322Z,3.65
2022-10-06T14:41:41.926Z,4.28
2022-10-06T14:44:11.446Z,3.88
2022-10-06T14:46:41.481Z,6.18
2022-10-06T14:49:13.494Z,3.40
2022-10-06T14:51:42.947Z,3.80
2022-10-06T14:54:10.933Z,4.28
2022-10-06T14:56:39.418Z,3.80
2022-10-06T14:59:09.993Z,3.38
2022-10-06T15:01:40.254Z,3.63
2022-10-06T15:04:13.704Z,5.90
2022-10-06T15:07:02.111Z,4.32
2022-10-06T15:09:31.198Z,3.83
2022-10-06T15:11:59.981Z,5.95
2022-10-06T15:14:30.839Z,3.58
2022-10-06T15:17:01.217Z,4.53
2022-10-06T15:19:28.913Z,5.32
2022-10-06T15:21:56.332Z,5.22
2022-10-06T15:24:24.467Z,4.07
2022-10-06T15:27:10.603Z,6.28
2022-10-06T15:29:37.947Z,7.50
2022-10-06T15:32:06.664Z,7.90
2022-10-06T15:34:36.894Z,6.72
2022-10-06T15:37:04.828Z,4.57
2022-10-06T15:39:35.978Z,6.30
2022-10-06T15:42:04.102Z,6.93
2022-10-06T15:44:32.176Z,6.15
2022-10-06T15:46:59.926Z,4.50
2022-10-06T15:49:32.989Z,5.47
2022-10-06T15:52:03.509Z,5.20
2022-10-06T15:54:37.643Z,5.55
2022-10-06T15:57:10.381Z,5.68
2022-10-06T15:59:40.088Z,7.10
2022-10-06T16:02:14.735Z,6.32
2022-10-06T16:04:42.630Z,5.75
2022-10-06T16:07:18.748Z,5.30
2022-10-06T16:09:48.376Z,8.15
2022-10-06T16:12:20.361Z,8.50
2022-10-06T16:14:47.984Z,17.40
2022-10-06T16:17:15.882Z,9.48
2022-10-06T16:19:43.743Z,7.32
2022-10-06T16:22:16.753Z,7.45
2022-10-06T16:24:44.520Z,23.02
2022-10-06T16:27:12.999Z,18.58
2022-10-06T16:29:40.612Z,17.48
2022-10-06T16:32:07.995Z,14.63
2022-10-06T16:34:35.209Z,15.00
2022-10-06T16:37:02.561Z,11.65
2022-10-06T16:39:29.751Z,13.65
2022-10-06T16:41:57.076Z,9.95
2022-10-06T16:44:24.613Z,8.48
2022-10-06T16:46:51.930Z,10.45
2022-10-06T16:49:19.772Z,9.27
2022-10-06T16:51:47.211Z,12.02
2022-10-06T16:54:17.109Z,8.07
2022-10-06T16:56:46.550Z,11.23
2022-10-06T16:59:16.330Z,10.25
2022-10-06T17:01:44.365Z,16.20
2022-10-06T17:04:23.881Z,11.80
2022-10-06T17:06:56.977Z,10.90
2022-10-06T17:09:29.216Z,11.57
2022-10-06T17:12:01.989Z,13.02
2022-10-06T17:14:31.903Z,9.75
2022-10-06T17:16:59.531Z,12.18
2022-10-06T17:19:29.186Z,13.55
2022-10-06T17:21:59.392Z,12.02
2022-10-06T17:24:28.993Z,10.15
2022-10-06T17:26:57.369Z,10.55
2022-10-06T17:29:26.006Z,12.32
2022-10-06T17:31:58.796Z,12.35
2022-10-06T17:34:31.918Z,10.18
2022-10-06T17:37:01.679Z,14.98
2022-10-06T17:39:29.627Z,10.85
2022-10-06T17:41:57.116Z,11.02
2022-10-06T17:44:27.041Z,9.45
2022-10-06T17:46:57.412Z,14.93
2022-10-06T17:49:25.375Z,11.07
2022-10-06T17:51:54.257Z,12.68
2022-10-06T17:54:23.854Z,12.27
2022-10-06T17:56:54.218Z,12.95
2022-10-06T17:59:28.607Z,9.15
2022-10-06T18:01:59.290Z,11.05
2022-10-06T18:04:27.138Z,9.82
2022-10-06T18:06:55.404Z,8.35
2022-10-06T18:09:23.129Z,8.43
2022-10-06T18:11:55.879Z,7.65
2022-10-06T18:14:27.121Z,10.85
2022-10-06T18:17:00.825Z,10.93
2022-10-06T18:19:30.700Z,11.57
2022-10-06T18:22:01.255Z,13.00
2022-10-06T18:24:30.544Z,12.18
2022-10-06T18:27:00.268Z,12.57
2022-10-06T18:29:33.311Z,10.60
2022-10-06T18:32:35.986Z,11.20
2022-10-06T18:37:36.428Z,12.43
2022-10-06T18:40:06.953Z,11.93
2022-10-06T18:42:34.290Z,16.05
2022-10-06T18:45:20.090Z,12.98
2022-10-06T18:48:05.715Z,13.35
2022-10-06T18:50:33.493Z,16.20
2022-10-06T18:53:01.952Z,20.17
2022-10-06T18:55:29.893Z,21.80
2022-10-06T18:57:57.832Z,40.45
2022-10-06T19:00:26.065Z,49.10
2022-10-06T19:02:55.608Z,49.92
2022-10-06T19:05:23.529Z,53.63
2022-10-06T19:07:53.197Z,54.50
2022-10-06T19:10:20.956Z,45.28
2022-10-06T19:12:48.557Z,41.08
2022-10-06T19:15:20.361Z,47.67
2022-10-06T19:17:50.001Z,44.70
2022-10-06T19:20:18.691Z,39.00
2022-10-06T19:22:47.561Z,35.08
2022-10-06T19:25:18.836Z,36.42
2022-10-06T19:27:46.386Z,30.05
2022-10-06T19:30:14.874Z,32.88
2022-10-06T19:32:42.167Z,40.22
2022-10-06T19:35:10.709Z,33.95
2022-10-06T19:37:39.368Z,30.85
2022-10-06T19:40:08.774Z,38.20
2022-10-06T19:42:48.630Z,36.40
2022-10-06T19:45:17.295Z,32.47
2022-10-06T19:47:45.505Z,32.67
2022-10-06T19:50:14.795Z,31.92
2022-10-06T19:52:42.521Z,34.38
2022-10-06T19:55:09.890Z,30.17
2022-10-06T19:57:37.252Z,27.05
2022-10-06T20:00:06.824Z,28.23
2022-10-06T20:02:43.103Z,27.90
2022-10-06T20:05:15.970Z,21.30
2022-10-06T20:07:45.528Z,25.05
2022-10-06T20:10:14.009Z,25.23
2022-10-06T20:12:41.721Z,21.60
2022-10-06T20:15:10.216Z,26.15
2022-10-06T20:17:37.900Z,30.50
2022-10-06T20:20:05.568Z,31.80
2022-10-06T20:22:32.831Z,33.83
2022-10-06T20:25:01.987Z,48.85
2022-10-06T20:27:29.283Z,49.30
2022-10-06T20:29:57.882Z,45.05
2022-10-06T20:32:25.326Z,45.97
2022-10-06T20:34:52.766Z,45.40
2022-10-06T20:37:19.915Z,33.10
2022-10-06T20:40:06.121Z,26.70
2022-10-06T20:42:33.676Z,25.42
2022-10-06T20:45:01.059Z,30.13
2022-10-06T20:47:28.775Z,27.95
2022-10-06T20:49:56.112Z,28.63
2022-10-06T20:52:24.259Z,28.33
2022-10-06T20:54:52.064Z,31.63
2022-10-06T20:57:19.727Z,27.40
2022-10-06T20:59:46.932Z,32.97
2022-10-06T21:02:14.151Z,29.88
2022-10-06T21:04:45.244Z,24.48
2022-10-06T21:07:12.581Z,26.60
2022-10-06T21:09:39.999Z,26.75
2022-10-06T21:12:07.532Z,20.80
2022-10-06T21:14:35.333Z,24.02
2022-10-06T21:17:02.575Z,20.85
2022-10-06T21:19:30.260Z,24.02
2022-10-06T21:21:57.585Z,23.80
2022-10-06T21:24:24.949Z,21.70
2022-10-06T21:26:52.879Z,23.40
2022-10-06T21:29:21.223Z,24.00
2022-10-06T21:31:48.590Z,26.35
2022-10-06T21:34:16.203Z,22.83
2022-10-06T21:36:44.332Z,26.58
2022-10-06T21:39:12.672Z,26.90
2022-10-06T21:41:41.165Z,30.33
2022-10-06T21:44:13.769Z,31.20
2022-10-06T21:46:47.736Z,25.65
2022-10-06T21:49:17.695Z,25.33
2022-10-06T21:51:47.551Z,24.77
2022-10-06T21:54:15.687Z,26.50
2022-10-06T21:56:43.867Z,22.73
2022-10-06T21:59:14.658Z,23.65
2022-10-06T22:01:44.205Z,26.08
2022-10-06T22:04:14.400Z,20.02
2022-10-06T22:06:44.389Z,19.83
2022-10-06T22:09:16.325Z,20.50
2022-10-06T22:11:44.199Z,20.77
2022-10-06T22:14:13.375Z,42.00
2022-10-06T22:16:40.671Z,18.25
2022-10-06T22:19:10.535Z,19.27
2022-10-06T22:21:48.235Z,20.52
2022-10-06T22:24:19.307Z,17.02
2022-10-06T22:26:47.149Z,22.70
2022-10-06T22:29:16.450Z,24.58
2022-10-06T22:31:45.683Z,21.10
2022-10-06T22:34:15.833Z,19.77
2022-10-06T22:36:43.325Z,22.05
2022-10-06T22:39:10.605Z,21.58
2022-10-06T22:41:38.070Z,19.48
2022-10-06T22:44:05.854Z,19.33
2022-10-06T22:46:35.630Z,19.65
2022-10-06T22:49:04.533Z,17.92
2022-10-06T22:51:32.278Z,19.75
2022-10-06T22:54:00.904Z,20.23
2022-10-06T22:56:29.858Z,17.55
2022-10-06T22:59:00.550Z,16.92
2022-10-06T23:01:29.491Z,15.63
2022-10-06T23:03:57.865Z,14.77
2022-10-06T23:06:26.050Z,16.45
